createdAt,value
2023-04-05T11:48:36.695Z,102069.00
2023-04-05T11:51:10.958Z,102066.00
2023-04-05T11:53:38.623Z,102063.00
2023-04-05T11:56:13.929Z,102076.00
2023-04-05T11:58:40.873Z,102079.00
2023-04-05T12:01:08.294Z,102081.00
2023-04-05T12:03:36.698Z,102085.00
2023-04-05T12:06:05.684Z,102091.00
2023-04-05T12:08:41.092Z,102103.00
2023-04-05T12:11:10.691Z,102106.00
2023-04-05T12:13:38.324Z,102125.00
2023-04-05T12:16:06.934Z,102078.00
2023-04-05T12:18:35.535Z,102090.00
2023-04-05T12:21:10.399Z,102052.00
2023-04-05T12:23:38.129Z,102071.00
2023-04-05T12:26:06.942Z,102069.00
2023-04-05T12:28:58.806Z,102091.00
2023-04-05T12:31:55.338Z,102091.00
2023-04-05T12:34:28.139Z,102065.00
2023-04-05T12:36:55.009Z,102081.00
2023-04-05T12:39:21.909Z,102085.00
2023-04-05T12:42:01.222Z,102091.00
2023-04-05T12:44:30.392Z,102086.00
2023-04-05T12:47:07.533Z,102077.00
2023-04-05T12:49:38.254Z,102063.00
2023-04-05T12:52:05.215Z,102080.00
2023-04-05T12:54:33.581Z,102045.00
2023-04-05T12:57:04.285Z,102056.00
2023-04-05T12:59:31.252Z,102076.00
2023-04-05T13:01:58.223Z,102075.00
2023-04-05T13:04:26.486Z,102087.00
2023-04-05T13:06:53.310Z,102068.00
2023-04-05T13:09:20.303Z,102068.00
2023-04-05T13:11:47.168Z,102058.00
2023-04-05T13:14:14.153Z,102060.00
2023-04-05T13:16:41.187Z,102045.00
2023-04-05T13:19:08.074Z,102025.00
2023-04-05T13:21:34.910Z,102019.00
2023-04-05T13:24:01.760Z,102031.00
2023-04-05T13:26:28.587Z,102017.00
2023-04-05T13:28:55.664Z,102032.00
2023-04-05T13:31:22.573Z,102028.00
2023-04-05T13:33:49.414Z,102015.00
2023-04-05T13:36:16.426Z,102023.00
2023-04-05T13:38:43.323Z,102013.00
2023-04-05T13:41:10.286Z,102032.00
2023-04-05T13:43:37.098Z,102028.00
2023-04-05T13:46:04.201Z,102033.00
2023-04-05T13:48:31.399Z,102019.00
2023-04-05T13:50:58.284Z,102008.00
2023-04-05T13:53:27.934Z,101997.00
2023-04-05T13:55:55.448Z,101988.00
2023-04-05T13:58:22.233Z,101980.00
2023-04-05T14:00:49.049Z,101975.00
2023-04-05T14:03:16.157Z,102002.00
2023-04-05T14:05:43.097Z,101986.00
2023-04-05T14:08:09.925Z,102011.00
2023-04-05T14:10:36.712Z,102004.00
2023-04-05T14:13:03.508Z,101990.00
2023-04-05T14:15:30.417Z,101997.00
2023-04-05T14:17:57.354Z,101979.00
2023-04-05T14:20:24.187Z,101983.00
2023-04-05T14:22:51.050Z,101966.00
2023-04-05T14:25:18.027Z,101981.00
2023-04-05T14:27:47.950Z,101969.00
2023-04-05T14:30:14.931Z,101972.00
2023-04-05T14:32:41.841Z,101991.00
2023-04-05T14:35:09.379Z,101974.00
2023-04-05T14:37:36.496Z,101961.00
2023-04-05T14:40:03.554Z,101959.00
2023-04-05T14:42:45.289Z,101962.00
2023-04-05T14:45:16.418Z,101979.00
2023-04-05T14:47:43.346Z,101969.00
2023-04-05T14:50:10.718Z,101973.00
2023-04-05T14:52:37.602Z,101932.00
2023-04-05T14:55:04.791Z,101975.00
2023-04-05T14:57:31.613Z,101964.00
2023-04-05T14:59:58.521Z,101947.00
2023-04-05T15:02:25.784Z,101967.00
2023-04-05T15:04:52.713Z,101963.00
2023-04-05T15:07:20.044Z,101955.00
2023-04-05T15:09:48.598Z,101949.00
2023-04-05T15:12:15.466Z,101951.00
2023-04-05T15:14:42.348Z,101941.00
2023-04-05T15:17:09.267Z,101931.00
2023-04-05T15:19:36.247Z,101936.00
2023-04-05T15:22:03.356Z,101932.00
2023-04-05T15:24:30.343Z,101937.00
2023-04-05T15:27:02.076Z,101921.00
2023-04-05T15:29:30.216Z,101931.00
2023-04-05T15:31:58.120Z,101919.00
2023-04-05T15:34:25.793Z,101918.00
2023-04-05T15:36:53.725Z,101916.00
2023-04-05T15:39:21.454Z,101925.00
2023-04-05T15:41:48.302Z,101939.00
2023-04-05T15:44:15.464Z,101898.00
2023-04-05T15:46:42.569Z,101898.00
2023-04-05T15:49:12.951Z,101905.00
2023-04-05T15:51:40.953Z,101898.00
2023-04-05T15:54:07.876Z,101886.00
2023-04-05T15:56:36.471Z,101885.00
2023-04-05T15:59:03.726Z,101888.00
2023-04-05T16:01:31.071Z,101891.00
2023-04-05T16:03:58.057Z,101870.00
2023-04-05T16:06:28.223Z,101874.00
2023-04-05T16:08:55.335Z,101877.00
2023-04-05T16:11:22.225Z,101858.00
2023-04-05T16:13:49.436Z,101852.00
2023-04-05T16:16:29.999Z,101846.00
2023-04-05T16:19:03.624Z,101836.00
2023-04-05T16:21:31.076Z,101850.00
2023-04-05T16:24:01.017Z,101824.00
2023-04-05T16:26:27.873Z,101837.00
2023-04-05T16:28:54.790Z,101826.00
2023-04-05T16:31:21.871Z,101848.00
2023-04-05T16:33:49.079Z,101850.00
2023-04-05T16:36:16.234Z,101864.00
2023-04-05T16:38:44.533Z,101851.00
2023-04-05T16:41:12.600Z,101838.00
2023-04-05T16:43:39.607Z,101839.00
2023-04-05T16:46:06.597Z,101836.00
2023-04-05T16:48:33.498Z,101834.00
2023-04-05T16:51:00.862Z,101823.00
2023-04-05T16:53:27.698Z,101827.00
2023-04-05T16:55:54.551Z,101836.00
2023-04-05T16:58:21.611Z,101846.00
2023-04-05T17:00:48.509Z,101822.00
2023-04-05T17:03:15.640Z,101829.00
2023-04-05T17:05:42.585Z,101834.00
2023-04-05T17:08:09.478Z,101823.00
2023-04-05T17:10:36.470Z,101826.00
2023-04-05T17:13:03.313Z,101820.00
2023-04-05T17:15:30.231Z,101803.00
2023-04-05T17:17:57.227Z,101799.00
2023-04-05T17:20:24.268Z,101799.00
2023-04-05T17:22:51.173Z,101798.00
2023-04-05T17:25:18.074Z,101797.00
2023-04-05T17:27:44.945Z,101788.00
2023-04-05T17:30:12.406Z,101792.00
2023-04-05T17:32:39.250Z,101782.00
2023-04-05T17:35:06.578Z,101770.00
2023-04-05T17:37:33.388Z,101798.00
2023-04-05T17:40:00.295Z,101775.00
2023-04-05T17:42:27.117Z,101770.00
2023-04-05T17:44:56.547Z,101766.00
2023-04-05T17:47:23.719Z,101760.00
2023-04-05T17:49:50.745Z,101769.00
2023-04-05T17:52:17.600Z,101763.00
2023-04-05T17:54:44.478Z,101759.00
2023-04-05T17:57:15.289Z,101767.00
2023-04-05T17:59:42.996Z,101770.00
2023-04-05T18:02:13.201Z,101770.00
2023-04-05T18:04:40.963Z,101770.00
2023-04-05T18:07:08.107Z,101764.00
2023-04-05T18:09:36.317Z,101765.00
2023-04-05T18:12:03.448Z,101766.00
2023-04-05T18:14:30.599Z,101761.00
2023-04-05T18:16:57.611Z,101768.00
2023-04-05T18:19:24.490Z,101764.00
2023-04-05T18:21:51.378Z,101751.00
2023-04-05T18:24:18.593Z,101745.00
2023-04-05T18:26:45.783Z,101734.00
2023-04-05T18:29:12.739Z,101734.00
2023-04-05T18:31:39.621Z,101737.00
2023-04-05T18:34:06.556Z,101749.00
2023-04-05T18:36:33.638Z,101758.00
2023-04-05T18:39:04.507Z,101766.00
2023-04-05T18:41:32.043Z,101751.00
2023-04-05T18:44:00.139Z,101767.00
2023-04-05T18:46:27.176Z,101756.00
2023-04-05T18:48:57.751Z,101757.00
2023-04-05T18:51:26.074Z,101745.00
2023-04-05T18:53:53.503Z,101741.00
2023-04-05T18:56:21.212Z,101756.00
2023-04-05T18:58:48.361Z,101757.00
2023-04-05T19:01:16.091Z,101750.00
2023-04-05T19:03:44.915Z,101751.00
2023-04-05T19:08:39.817Z,101765.00
2023-04-05T19:11:07.512Z,101766.00
2023-04-05T19:13:34.370Z,101752.00
2023-04-05T19:16:01.314Z,101750.00
2023-04-05T19:18:29.815Z,101758.00
2023-04-05T19:20:58.660Z,101756.00
2023-04-05T19:23:26.662Z,101759.00
2023-04-05T19:25:57.842Z,101761.00
2023-04-05T19:28:26.084Z,101760.00
2023-04-05T19:30:53.534Z,101760.00
2023-04-05T19:33:21.910Z,101754.00
2023-04-05T19:35:49.186Z,101748.00
2023-04-05T19:38:16.372Z,101728.00
2023-04-05T19:40:43.435Z,101736.00
2023-04-05T19:43:11.556Z,101748.00
2023-04-05T19:45:38.472Z,101737.00
2023-04-05T19:48:27.982Z,101715.00
2023-04-05T19:50:59.512Z,101739.00
2023-04-05T19:53:40.550Z,101720.00
2023-04-05T19:56:14.127Z,101728.00
2023-04-05T19:58:41.368Z,101752.00
2023-04-05T20:01:08.818Z,101747.00
2023-04-05T20:03:42.409Z,101734.00
2023-04-05T20:06:13.861Z,101730.00
2023-04-05T20:08:42.462Z,101723.00
2023-04-05T20:11:22.148Z,101720.00
2023-04-05T20:13:51.424Z,101704.00
2023-04-05T20:16:23.147Z,101700.00
2023-04-05T20:18:50.303Z,101704.00
2023-04-05T20:21:18.082Z,101704.00
2023-04-05T20:23:45.494Z,101685.00
2023-04-05T20:26:16.052Z,101685.00
2023-04-05T20:28:53.538Z,101685.00
2023-04-05T20:31:29.468Z,101689.00
2023-04-05T20:34:09.476Z,101683.00
2023-04-05T20:36:38.237Z,101681.00
2023-04-05T20:39:06.910Z,101680.00
2023-04-05T20:41:34.283Z,101681.00
2023-04-05T20:44:01.176Z,101685.00
2023-04-05T20:46:28.377Z,101682.00
2023-04-05T20:48:57.333Z,101672.00
2023-04-05T20:51:24.655Z,101681.00
2023-04-05T20:53:51.684Z,101670.00
2023-04-05T20:56:19.043Z,101671.00
2023-04-05T20:58:46.198Z,101662.00
